Time;durP1;ratioP1;P1;durP2;ratioP2;P2;SDS_P1;SDS_P2;PMS_P1;PMS_P2;Temp;Humidity;BMP_temperature;BMP_pressure;BME280_temperature;BME280_humidity;BME280_pressure;Samples;Min_cycle;Max_cycle;Signal;HPM_P1;HPM_P2
2023/03/06 00:01:23;;;;;;;6.45;5.15;;;3.50;99.90;;;;;;5073625;28;20099;-50
2023/03/06 00:04:09;;;;;;;5.93;5.07;;;3.50;99.90;;;;;;5073307;28;20131;-49
2023/03/06 00:06:55;;;;;;;10.82;5.82;;;3.50;99.90;;;;;;5072019;28;20095;-51
2023/03/06 00:09:40;;;;;;;7.60;5.43;;;3.40;99.90;;;;;;5057829;28;20028;-49
2023/03/06 00:12:26;;;;;;;7.25;5.35;;;3.50;99.90;;;;;;5073322;28;20037;-53
2023/03/06 00:15:13;;;;;;;9.68;5.93;;;3.50;99.90;;;;;;5071186;28;20032;-50
2023/03/06 00:18:01;;;;;;;8.63;5.97;;;3.40;99.90;;;;;;5066015;28;20052;-49
2023/03/06 00:20:47;;;;;;;8.57;6.22;;;3.50;99.90;;;;;;5077317;28;20101;-49
2023/03/06 00:23:33;;;;;;;9.25;5.70;;;3.50;99.90;;;;;;5071231;28;20028;-50
2023/03/06 00:26:19;;;;;;;7.90;5.88;;;3.50;99.90;;;;;;5044323;28;20074;-49
2023/03/06 00:29:05;;;;;;;8.43;5.97;;;3.50;99.90;;;;;;5053020;28;20103;-51
2023/03/06 00:31:51;;;;;;;7.60;5.97;;;3.50;99.90;;;;;;5063467;28;20033;-47
2023/03/06 00:34:37;;;;;;;7.93;5.63;;;3.50;99.90;;;;;;5071767;28;20389;-48
2023/03/06 00:37:24;;;;;;;7.55;5.47;;;3.40;99.90;;;;;;5072104;28;20143;-52
2023/03/06 00:40:16;;;;;;;6.72;5.75;;;3.50;99.90;;;;;;5073113;28;20454;-51
2023/03/06 00:43:02;;;;;;;6.80;5.20;;;3.40;99.90;;;;;;5071275;28;20036;-50
2023/03/06 00:45:48;;;;;;;9.45;6.00;;;3.40;99.90;;;;;;5072757;28;20032;-50
2023/03/06 00:48:34;;;;;;;10.73;6.10;;;3.50;99.90;;;;;;5073340;28;20504;-50
2023/03/06 00:51:20;;;;;;;8.90;6.30;;;3.40;99.90;;;;;;5057150;28;20028;-48
2023/03/06 00:54:06;;;;;;;8.45;6.30;;;3.30;99.90;;;;;;5070280;28;20033;-47
2023/03/06 00:56:52;;;;;;;10.35;6.10;;;3.40;99.90;;;;;;5071617;28;20033;-49
2023/03/06 00:59:38;;;;;;;8.30;6.00;;;3.40;99.90;;;;;;5071767;28;20035;-48
2023/03/06 01:02:24;;;;;;;10.02;6.40;;;3.40;99.90;;;;;;5051133;28;20033;-52
2023/03/06 01:05:12;;;;;;;10.32;6.07;;;3.30;99.90;;;;;;5054460;28;20433;-48
2023/03/06 01:07:58;;;;;;;8.95;6.53;;;3.30;99.90;;;;;;5071782;28;20035;-49
2023/03/06 01:10:44;;;;;;;10.52;6.25;;;3.30;99.90;;;;;;5070666;28;20059;-48
2023/03/06 01:13:30;;;;;;;9.57;6.53;;;3.30;99.90;;;;;;5072087;28;20066;-54
2023/03/06 01:16:18;;;;;;;14.27;6.72;;;3.20;99.90;;;;;;5071742;28;20049;-50
2023/03/06 01:19:04;;;;;;;9.90;7.20;;;3.20;99.90;;;;;;5071393;28;20119;-52
2023/03/06 01:21:50;;;;;;;9.38;6.68;;;3.20;99.90;;;;;;5071276;28;20461;-53
2023/03/06 01:24:35;;;;;;;10.52;7.07;;;3.10;99.90;;;;;;5056409;28;20425;-51
2023/03/06 01:27:21;;;;;;;10.10;7.57;;;3.00;99.90;;;;;;5069443;28;20108;-50
2023/03/06 01:30:08;;;;;;;9.90;7.28;;;3.10;99.90;;;;;;5071080;28;20115;-47
2023/03/06 01:32:54;;;;;;;10.70;7.60;;;3.10;99.90;;;;;;5051867;28;20033;-50
2023/03/06 01:35:41;;;;;;;10.25;7.78;;;3.10;99.90;;;;;;5055612;28;20033;-52
2023/03/06 01:38:27;;;;;;;10.95;7.70;;;3.00;99.90;;;;;;5070842;28;20509;-51
2023/03/06 01:41:14;;;;;;;12.75;8.45;;;3.00;99.90;;;;;;5070259;28;20497;-49
2023/03/06 01:44:00;;;;;;;13.70;8.18;;;3.10;99.90;;;;;;5071697;28;20021;-47
2023/03/06 01:46:46;;;;;;;13.80;9.20;;;3.10;99.90;;;;;;5070937;28;20400;-52
2023/03/06 01:49:37;;;;;;;14.40;9.13;;;3.10;99.90;;;;;;5071721;28;20590;-53
2023/03/06 01:52:29;;;;;;;14.23;9.10;;;3.10;99.90;;;;;;5052831;28;20064;-49
2023/03/06 01:55:25;;;;;;;13.43;9.18;;;3.10;99.90;;;;;;5055258;28;20025;-52
2023/03/06 01:58:16;;;;;;;13.52;9.40;;;3.00;99.90;;;;;;5071612;28;20128;-48
2023/03/06 02:01:02;;;;;;;14.55;8.75;;;2.90;99.90;;;;;;5070096;28;20029;-49
2023/03/06 02:03:49;;;;;;;16.80;9.98;;;2.90;99.90;;;;;;5071093;28;20055;-48
2023/03/06 02:06:41;;;;;;;16.50;10.30;;;2.90;99.90;;;;;;5069646;28;20447;-47
2023/03/06 02:09:29;;;;;;;15.05;11.20;;;2.80;99.90;;;;;;5036141;28;20037;-50
2023/03/06 02:12:18;;;;;;;14.77;9.82;;;2.80;99.90;;;;;;5069682;28;20028;-50
2023/03/06 02:15:04;;;;;;;14.20;9.80;;;2.80;99.90;;;;;;5071252;28;20024;-48
2023/03/06 02:17:51;;;;;;;15.43;10.10;;;2.80;99.90;;;;;;5076737;28;20067;-48
2023/03/06 02:20:44;;;;;;;16.42;10.98;;;2.80;99.90;;;;;;5075294;28;20105;-49
2023/03/06 02:23:57;;;;;;;16.17;10.45;;;2.80;99.90;;;;;;5070415;28;20521;-49
2023/03/06 02:26:44;;;;;;;16.00;10.25;;;2.80;99.90;;;;;;5069991;28;20021;-50
2023/03/06 02:29:30;;;;;;;16.52;10.73;;;2.80;99.90;;;;;;5070613;28;20025;-50
2023/03/06 02:32:16;;;;;;;18.42;11.00;;;2.80;99.90;;;;;;5070511;28;20382;-50
2023/03/06 02:35:02;;;;;;;18.27;11.60;;;2.80;99.90;;;;;;5071027;28;20025;-51
2023/03/06 02:37:49;;;;;;;17.25;10.95;;;2.80;99.90;;;;;;5070188;28;20021;-49
2023/03/06 02:40:35;;;;;;;18.67;11.63;;;2.80;99.90;;;;;;5070259;28;20396;-49
2023/03/06 02:43:27;;;;;;;17.35;11.25;;;2.80;99.90;;;;;;5071077;28;20032;-48
2023/03/06 02:46:13;;;;;;;15.90;11.30;;;2.80;99.90;;;;;;5069660;28;20021;-48
2023/03/06 02:48:59;;;;;;;15.00;10.40;;;2.80;99.90;;;;;;5070544;28;20033;-49
2023/03/06 02:51:45;;;;;;;17.45;11.57;;;2.80;99.90;;;;;;5070105;28;20071;-49
2023/03/06 02:54:31;;;;;;;21.02;12.80;;;2.70;99.90;;;;;;5071324;28;20410;-50
2023/03/06 02:57:17;;;;;;;19.20;11.82;;;2.60;99.90;;;;;;5051057;28;20493;-49
2023/03/06 03:00:03;;;;;;;19.15;12.57;;;2.70;99.90;;;;;;5051474;28;20402;-54
2023/03/06 03:02:49;;;;;;;21.17;13.60;;;2.70;99.90;;;;;;5068907;28;20048;-50
2023/03/06 03:05:35;;;;;;;21.10;12.95;;;2.60;99.90;;;;;;5070740;28;20055;-50
2023/03/06 03:08:22;;;;;;;18.15;13.13;;;2.70;99.90;;;;;;5070989;28;20131;-52
2023/03/06 03:11:08;;;;;;;24.45;14.98;;;2.70;99.90;;;;;;5070913;28;20025;-52
2023/03/06 03:13:54;;;;;;;19.50;13.10;;;2.70;99.90;;;;;;5070062;28;20036;-50
2023/03/06 03:16:39;;;;;;;21.77;12.63;;;2.60;99.90;;;;;;5069366;28;20060;-52
2023/03/06 03:19:25;;;;;;;21.08;13.68;;;2.60;99.90;;;;;;5056096;28;20037;-52
2023/03/06 03:22:11;;;;;;;22.15;14.30;;;2.60;99.90;;;;;;5070954;28;20423;-49
2023/03/06 03:24:57;;;;;;;24.60;14.85;;;2.50;99.90;;;;;;5059410;28;20064;-50
2023/03/06 03:27:43;;;;;;;20.88;14.10;;;2.50;99.90;;;;;;5073744;28;20024;-50
2023/03/06 03:30:29;;;;;;;22.13;14.43;;;2.60;99.90;;;;;;5074068;28;20044;-50
2023/03/06 03:33:15;;;;;;;22.10;14.45;;;2.50;99.90;;;;;;5074229;28;20029;-48
2023/03/06 03:36:03;;;;;;;23.60;14.95;;;2.50;99.90;;;;;;5074406;28;20060;-50
2023/03/06 03:38:49;;;;;;;24.15;14.48;;;2.50;99.90;;;;;;5073649;28;20025;-47
2023/03/06 03:41:35;;;;;;;25.17;14.57;;;2.60;99.90;;;;;;5073242;28;20093;-49
2023/03/06 03:44:21;;;;;;;22.70;14.75;;;2.60;99.90;;;;;;5073358;28;20071;-51
2023/03/06 03:47:07;;;;;;;23.42;15.85;;;2.70;99.90;;;;;;5057882;28;20051;-48
2023/03/06 03:49:52;;;;;;;24.45;15.25;;;2.60;99.90;;;;;;5074091;28;20401;-49
2023/03/06 03:52:38;;;;;;;24.00;14.73;;;2.60;99.90;;;;;;5059475;28;20449;-49
2023/03/06 03:55:24;;;;;;;22.17;14.27;;;2.50;99.90;;;;;;5073139;28;20542;-53
2023/03/06 03:58:10;;;;;;;26.48;15.70;;;2.50;99.90;;;;;;5059878;28;20489;-51
2023/03/06 04:00:56;;;;;;;25.58;17.00;;;2.60;99.90;;;;;;5072879;28;20736;-49
2023/03/06 04:03:42;;;;;;;24.60;16.58;;;2.60;99.90;;;;;;5074613;28;20028;-48
2023/03/06 04:06:28;;;;;;;24.95;15.95;;;2.50;99.90;;;;;;5073661;28;20036;-48
2023/03/06 04:09:14;;;;;;;24.98;16.25;;;2.40;99.90;;;;;;5073285;28;20028;-48
2023/03/06 04:12:00;;;;;;;26.13;16.33;;;2.50;99.90;;;;;;5072835;28;20540;-50
2023/03/06 04:14:46;;;;;;;29.15;17.38;;;2.40;99.90;;;;;;5073770;28;20056;-52
2023/03/06 04:17:35;;;;;;;25.10;16.27;;;2.40;99.90;;;;;;5073406;28;20033;-48
2023/03/06 04:20:21;;;;;;;26.10;17.10;;;2.40;99.90;;;;;;5072640;28;20028;-49
2023/03/06 04:23:07;;;;;;;26.50;15.48;;;2.30;99.90;;;;;;5073017;28;20148;-51
2023/03/06 04:25:53;;;;;;;30.30;17.20;;;2.30;99.90;;;;;;5072641;28;20071;-55
2023/03/06 04:28:39;;;;;;;27.38;16.65;;;2.30;99.90;;;;;;5045410;28;20074;-49
2023/03/06 04:31:25;;;;;;;29.45;17.98;;;2.30;99.90;;;;;;5057698;28;20048;-50
2023/03/06 04:34:11;;;;;;;26.25;17.52;;;2.30;99.90;;;;;;5073157;28;20024;-51
2023/03/06 04:36:57;;;;;;;28.15;17.67;;;2.40;99.90;;;;;;5073373;28;20444;-50
2023/03/06 04:39:43;;;;;;;28.33;17.83;;;2.40;99.90;;;;;;5057766;28;20572;-49
2023/03/06 04:42:29;;;;;;;27.83;17.80;;;2.40;99.90;;;;;;5052863;28;20033;-48
2023/03/06 04:45:15;;;;;;;29.40;18.33;;;2.40;99.90;;;;;;5057790;28;20032;-49
2023/03/06 04:48:02;;;;;;;29.35;18.80;;;2.40;99.90;;;;;;5073538;28;20024;-48
2023/03/06 04:50:47;;;;;;;27.98;18.48;;;2.40;99.90;;;;;;5072332;28;20060;-50
2023/03/06 04:53:33;;;;;;;28.20;17.42;;;2.40;99.90;;;;;;5072292;28;20444;-48
2023/03/06 04:56:19;;;;;;;29.90;17.75;;;2.50;99.90;;;;;;5071836;28;20064;-48
2023/03/06 04:59:05;;;;;;;30.58;19.23;;;2.50;99.90;;;;;;5043604;28;20029;-50
2023/03/06 05:01:51;;;;;;;27.75;18.25;;;2.50;99.90;;;;;;5070627;28;20024;-51
2023/03/06 05:04:37;;;;;;;31.50;19.90;;;2.50;99.90;;;;;;5071998;28;20051;-48
2023/03/06 05:07:23;;;;;;;29.63;18.73;;;2.40;99.90;;;;;;5056332;28;20051;-51
2023/03/06 05:10:12;;;;;;;28.45;18.77;;;2.40;99.90;;;;;;5071018;28;20025;-49
2023/03/06 05:12:58;;;;;;;29.65;18.58;;;2.40;99.90;;;;;;5070564;28;20044;-54
2023/03/06 05:15:44;;;;;;;28.85;18.52;;;2.30;99.90;;;;;;5072872;28;20067;-50
2023/03/06 05:18:31;;;;;;;28.70;18.80;;;2.40;99.90;;;;;;5071636;28;20028;-52
2023/03/06 05:21:17;;;;;;;29.90;19.55;;;2.40;99.90;;;;;;5071424;28;20079;-49
2023/03/06 05:24:03;;;;;;;28.75;18.52;;;2.40;99.90;;;;;;5072901;28;20100;-51
2023/03/06 05:26:49;;;;;;;33.25;19.98;;;2.40;99.90;;;;;;5055970;28;20091;-50
2023/03/06 05:29:34;;;;;;;32.60;19.60;;;2.30;99.90;;;;;;5071647;28;20020;-50
2023/03/06 05:32:21;;;;;;;29.30;19.35;;;2.30;99.90;;;;;;5051667;28;20485;-50
2023/03/06 05:35:07;;;;;;;36.80;19.67;;;2.30;99.90;;;;;;5056815;28;20032;-50
2023/03/06 05:37:53;;;;;;;32.60;19.98;;;2.30;99.90;;;;;;5056165;28;20040;-49
2023/03/06 05:40:40;;;;;;;34.35;21.60;;;2.30;99.90;;;;;;5072993;28;20025;-50
2023/03/06 05:43:26;;;;;;;33.42;20.00;;;2.40;99.90;;;;;;5057307;28;20029;-49
2023/03/06 05:46:12;;;;;;;30.60;19.60;;;2.40;99.90;;;;;;5070278;28;20103;-49
2023/03/06 05:48:58;;;;;;;32.10;19.75;;;2.40;99.90;;;;;;5070776;28;20024;-48
2023/03/06 05:51:44;;;;;;;33.65;20.85;;;2.40;99.90;;;;;;5056745;28;20029;-53
2023/03/06 05:54:31;;;;;;;34.78;19.98;;;2.40;99.90;;;;;;5071130;28;20031;-50
2023/03/06 05:57:22;;;;;;;33.90;19.42;;;2.40;99.90;;;;;;5051501;28;20036;-49
2023/03/06 06:00:09;;;;;;;34.08;21.23;;;2.40;99.90;;;;;;5055436;28;20102;-51
2023/03/06 06:02:55;;;;;;;34.05;20.67;;;2.30;99.90;;;;;;5070046;28;20416;-48
2023/03/06 06:05:41;;;;;;;31.40;19.27;;;2.20;99.90;;;;;;5071679;28;20016;-48
2023/03/06 06:08:26;;;;;;;38.65;22.40;;;2.30;99.90;;;;;;5071505;28;20036;-51
2023/03/06 06:11:13;;;;;;;37.42;22.20;;;2.40;99.90;;;;;;5072422;28;20051;-49
2023/03/06 06:13:59;;;;;;;36.97;22.85;;;2.30;99.90;;;;;;5069430;28;20232;-48
2023/03/06 06:16:45;;;;;;;33.95;21.88;;;2.40;99.90;;;;;;5071134;28;20028;-48
2023/03/06 06:19:31;;;;;;;35.42;22.13;;;2.40;99.90;;;;;;5071760;28;20067;-49
2023/03/06 06:22:17;;;;;;;37.28;22.00;;;2.40;99.90;;;;;;5051164;28;20140;-47
2023/03/06 06:25:04;;;;;;;33.85;21.70;;;2.30;99.90;;;;;;5054146;28;20020;-49
2023/03/06 06:27:52;;;;;;;36.45;22.15;;;2.30;99.90;;;;;;5069709;28;20027;-53
2023/03/06 06:30:38;;;;;;;40.17;23.02;;;2.40;99.90;;;;;;5070974;28;20521;-49
2023/03/06 06:33:25;;;;;;;38.65;22.55;;;2.40;99.90;;;;;;5070708;28;20037;-48
2023/03/06 06:36:19;;;;;;;35.70;20.98;;;2.40;99.90;;;;;;5070516;28;20060;-53
2023/03/06 06:39:06;;;;;;;35.45;22.38;;;2.40;99.90;;;;;;5069648;28;20119;-50
2023/03/06 06:41:52;;;;;;;37.22;22.38;;;2.40;99.90;;;;;;5070861;28;20024;-53
2023/03/06 06:44:38;;;;;;;36.47;22.20;;;2.50;99.90;;;;;;5071747;28;20036;-48
2023/03/06 06:47:24;;;;;;;38.70;22.00;;;2.50;99.90;;;;;;5070555;28;20025;-50
2023/03/06 06:50:11;;;;;;;37.63;22.85;;;2.50;99.90;;;;;;5071640;28;20044;-54
2023/03/06 06:52:57;;;;;;;39.38;22.25;;;2.50;99.90;;;;;;5070383;28;20447;-50
2023/03/06 06:55:43;;;;;;;42.58;23.40;;;2.50;99.90;;;;;;5059250;28;20447;-52
2023/03/06 06:58:29;;;;;;;41.00;23.92;;;2.50;99.90;;;;;;5074952;28;20508;-52
2023/03/06 07:01:15;;;;;;;36.13;22.80;;;2.40;99.90;;;;;;5074630;28;20033;-50
2023/03/06 07:04:01;;;;;;;34.30;22.05;;;2.50;99.90;;;;;;5074253;28;20409;-52
2023/03/06 07:06:47;;;;;;;37.45;22.80;;;2.50;99.90;;;;;;5073648;28;20412;-51
2023/03/06 07:09:33;;;;;;;45.33;23.80;;;2.60;99.90;;;;;;5075432;28;20025;-50
2023/03/06 07:12:19;;;;;;;43.00;24.05;;;2.60;99.90;;;;;;5075557;28;20017;-54
2023/03/06 07:15:06;;;;;;;39.75;23.55;;;2.60;99.90;;;;;;5059046;28;20149;-49
2023/03/06 07:17:52;;;;;;;39.20;22.65;;;2.70;99.90;;;;;;5072612;28;20031;-54
2023/03/06 07:20:38;;;;;;;39.85;23.33;;;2.60;99.90;;;;;;5074086;28;20428;-51
2023/03/06 07:23:25;;;;;;;38.38;23.85;;;2.60;99.90;;;;;;5074266;28;20029;-54
2023/03/06 07:26:11;;;;;;;41.38;23.20;;;2.70;99.90;;;;;;5072161;28;20032;-54
2023/03/06 07:28:57;;;;;;;34.20;22.25;;;2.70;99.90;;;;;;5059435;28;20037;-51
2023/03/06 07:31:43;;;;;;;45.58;26.05;;;2.70;99.90;;;;;;5075182;28;20032;-51
2023/03/06 07:34:29;;;;;;;44.38;24.30;;;2.70;99.90;;;;;;5074897;28;20396;-50
2023/03/06 07:37:15;;;;;;;43.60;25.92;;;2.60;99.90;;;;;;5073680;28;20033;-50
2023/03/06 07:40:01;;;;;;;41.40;23.15;;;2.60;99.90;;;;;;5058443;28;20060;-51
2023/03/06 07:42:46;;;;;;;38.95;22.65;;;2.70;99.90;;;;;;5074981;28;20025;-53
2023/03/06 07:45:33;;;;;;;39.10;24.52;;;2.60;99.90;;;;;;5065404;28;20508;-50
2023/03/06 07:48:19;;;;;;;41.67;24.67;;;2.60;99.90;;;;;;5072643;28;20392;-50
2023/03/06 07:51:09;;;;;;;42.00;25.08;;;2.70;99.90;;;;;;5073207;28;20465;-50
2023/03/06 07:53:58;;;;;;;39.40;24.02;;;2.70;99.90;;;;;;5081115;28;20161;-52
2023/03/06 07:56:44;;;;;;;44.45;25.77;;;2.60;99.90;;;;;;5066051;28;20066;-48
2023/03/06 07:59:30;;;;;;;44.65;25.77;;;2.60;99.90;;;;;;5074755;28;20245;-48
2023/03/06 08:02:16;;;;;;;41.15;25.23;;;2.70;99.90;;;;;;5074385;28;20109;-50
2023/03/06 08:05:02;;;;;;;44.50;25.40;;;2.60;99.90;;;;;;5073644;28;20024;-50
2023/03/06 08:07:48;;;;;;;40.22;24.48;;;2.80;99.90;;;;;;5072083;28;20028;-49
2023/03/06 08:10:34;;;;;;;42.60;24.70;;;2.80;99.90;;;;;;5073450;28;20036;-48
2023/03/06 08:13:20;;;;;;;43.17;24.67;;;2.80;99.90;;;;;;5074021;28;20896;-49
2023/03/06 08:16:07;;;;;;;44.33;24.50;;;2.80;99.90;;;;;;5073265;28;20416;-48
2023/03/06 08:18:53;;;;;;;42.25;25.10;;;2.90;99.90;;;;;;5073056;28;20020;-53
2023/03/06 08:21:39;;;;;;;43.63;24.63;;;2.90;99.90;;;;;;5072443;28;20032;-48
2023/03/06 08:24:25;;;;;;;40.90;23.80;;;2.90;99.90;;;;;;5074609;28;20020;-49
2023/03/06 08:27:11;;;;;;;42.17;25.25;;;3.00;99.90;;;;;;5073873;28;20021;-49
2023/03/06 08:29:57;;;;;;;38.58;24.55;;;3.00;99.90;;;;;;5073135;28;20524;-48
2023/03/06 08:32:43;;;;;;;44.30;23.80;;;3.10;99.90;;;;;;5074035;28;20056;-50
2023/03/06 08:35:29;;;;;;;48.50;25.63;;;3.10;99.90;;;;;;5076273;28;20036;-49
2023/03/06 08:38:15;;;;;;;43.20;25.10;;;3.10;99.90;;;;;;5077143;28;20025;-52
2023/03/06 08:41:01;;;;;;;42.75;23.98;;;3.00;99.90;;;;;;5076657;28;20553;-50
2023/03/06 08:43:48;;;;;;;41.65;23.75;;;3.10;99.90;;;;;;5081228;28;20029;-49
2023/03/06 08:46:34;;;;;;;38.00;22.05;;;3.10;99.90;;;;;;5088227;28;20081;-49
2023/03/06 08:49:20;;;;;;;42.65;23.88;;;3.20;99.90;;;;;;5080197;28;20440;-44
2023/03/06 08:52:06;;;;;;;39.47;23.58;;;3.20;99.90;;;;;;5054718;28;20055;-47
2023/03/06 08:54:52;;;;;;;38.63;23.77;;;3.30;99.90;;;;;;5072372;28;20096;-46
2023/03/06 08:57:38;;;;;;;39.83;23.38;;;3.30;99.90;;;;;;5073177;28;20030;-44
2023/03/06 09:00:24;;;;;;;37.75;24.05;;;3.40;99.90;;;;;;5073083;28;20025;-44
2023/03/06 09:03:10;;;;;;;42.60;24.70;;;3.40;99.90;;;;;;5073085;28;20489;-46
2023/03/06 09:05:58;;;;;;;40.13;24.50;;;3.60;99.90;;;;;;5285595;22;20083;-50
2023/03/06 09:08:44;;;;;;;36.78;22.88;;;3.70;99.90;;;;;;5051833;28;20033;-50
2023/03/06 09:11:30;;;;;;;39.70;24.75;;;3.80;99.90;;;;;;5051726;28;20455;-49
2023/03/06 09:14:16;;;;;;;41.72;24.58;;;3.80;99.90;;;;;;5040328;28;20528;-52
2023/03/06 09:17:02;;;;;;;40.53;24.17;;;3.90;99.90;;;;;;5031391;28;20033;-49
2023/03/06 09:19:49;;;;;;;39.53;24.88;;;3.80;99.90;;;;;;5032336;28;20129;-52
2023/03/06 09:22:35;;;;;;;37.80;23.88;;;3.80;99.90;;;;;;5016304;28;20117;-53
2023/03/06 09:25:22;;;;;;;39.97;25.08;;;3.80;99.90;;;;;;5032046;28;20029;-51
2023/03/06 09:28:08;;;;;;;41.13;24.50;;;3.80;99.90;;;;;;5030917;28;20030;-52
2023/03/06 09:30:54;;;;;;;47.03;26.40;;;3.80;99.90;;;;;;5030954;28;20057;-53
2023/03/06 09:33:40;;;;;;;42.08;25.65;;;3.80;99.90;;;;;;5031315;28;20449;-50
2023/03/06 09:36:26;;;;;;;41.53;25.80;;;3.80;99.90;;;;;;5031259;28;20059;-53
2023/03/06 09:39:12;;;;;;;43.60;26.83;;;3.80;99.90;;;;;;5031596;28;20064;-47
2023/03/06 09:41:58;;;;;;;43.00;26.42;;;3.90;99.90;;;;;;5017538;28;20124;-53
2023/03/06 09:44:50;;;;;;;41.22;25.75;;;4.00;99.90;;;;;;5030769;28;20587;-48
2023/03/06 09:47:51;;;;;;;43.63;26.95;;;3.80;99.90;;;;;;5029411;28;20112;-49
2023/03/06 09:50:49;;;;;;;43.22;27.15;;;3.80;99.90;;;;;;5030217;28;20417;-48
2023/03/06 09:53:56;;;;;;;44.05;24.85;;;3.80;99.90;;;;;;5030723;28;20025;-52
2023/03/06 09:56:47;;;;;;;44.92;25.42;;;3.80;99.90;;;;;;5029315;28;20056;-50
2023/03/06 09:59:33;;;;;;;47.50;27.48;;;3.70;99.90;;;;;;5030605;28;20026;-52
2023/03/06 10:02:37;;;;;;;41.33;24.80;;;3.70;99.90;;;;;;5012637;28;20046;-55
2023/03/06 10:05:30;;;;;;;45.00;25.48;;;3.70;99.90;;;;;;5025346;28;20049;-49
2023/03/06 10:08:35;;;;;;;44.80;26.55;;;3.60;99.90;;;;;;5018768;28;20445;-50
2023/03/06 10:11:31;;;;;;;40.70;25.58;;;3.70;99.90;;;;;;5010112;28;20037;-55
2023/03/06 10:14:36;;;;;;;41.55;25.80;;;3.70;99.90;;;;;;5013969;28;20069;-50
2023/03/06 10:17:24;;;;;;;43.45;26.05;;;3.60;99.90;;;;;;5024870;28;20049;-51
2023/03/06 10:20:26;;;;;;;46.83;25.75;;;3.60;99.90;;;;;;5030821;28;20382;-51
2023/03/06 10:23:30;;;;;;;46.30;27.45;;;3.70;99.90;;;;;;5030841;28;20032;-49
2023/03/06 10:26:23;;;;;;;45.35;26.80;;;3.80;99.90;;;;;;5029948;28;20026;-49
2023/03/06 10:29:21;;;;;;;43.72;27.35;;;3.90;99.90;;;;;;5012449;28;20026;-52
2023/03/06 10:32:29;;;;;;;44.92;28.23;;;3.90;99.90;;;;;;5010361;28;20579;-51
2023/03/06 10:35:19;;;;;;;44.88;28.33;;;4.00;99.90;;;;;;5012579;28;20107;-52
2023/03/06 10:38:21;;;;;;;40.60;26.02;;;4.20;99.90;;;;;;5025623;28;20026;-48
2023/03/06 10:41:25;;;;;;;40.58;25.45;;;4.40;99.90;;;;;;5012076;28;20030;-48
2023/03/06 10:44:11;;;;;;;40.70;26.38;;;4.40;99.90;;;;;;5023267;28;20018;-54
2023/03/06 10:46:57;;;;;;;44.00;28.73;;;4.50;99.90;;;;;;5030811;28;20029;-60
2023/03/06 10:49:56;;;;;;;36.45;24.38;;;4.70;99.90;;;;;;5016984;28;20414;-55
2023/03/06 10:52:42;;;;;;;38.20;24.33;;;4.90;99.90;;;;;;5026825;28;20083;-52
2023/03/06 10:55:34;;;;;;;37.88;26.00;;;5.10;99.90;;;;;;5021319;28;20065;-54
2023/03/06 10:58:29;;;;;;;39.92;25.63;;;5.30;99.90;;;;;;5013945;28;20061;-57
2023/03/06 11:01:21;;;;;;;42.35;26.17;;;4.90;99.90;;;;;;5015448;28;20111;-49
2023/03/06 11:04:22;;;;;;;36.67;24.73;;;5.00;99.90;;;;;;5029758;28;20074;-51
2023/03/06 11:07:20;;;;;;;37.75;24.17;;;5.00;99.90;;;;;;5029893;28;20477;-50
2023/03/06 11:10:17;;;;;;;37.60;22.73;;;5.10;99.90;;;;;;5022948;28;20026;-51
2023/03/06 11:13:17;;;;;;;37.25;23.90;;;5.40;99.90;;;;;;5010502;28;20101;-48
2023/03/06 11:16:14;;;;;;;35.13;22.60;;;5.40;99.90;;;;;;5010485;28;20041;-54
2023/03/06 11:19:15;;;;;;;37.63;24.08;;;5.30;99.90;;;;;;5009882;28;20022;-52
2023/03/06 11:22:17;;;;;;;37.67;24.10;;;5.30;99.90;;;;;;5010442;28;20525;-51
2023/03/06 11:25:03;;;;;;;36.88;23.60;;;5.30;99.90;;;;;;5010287;28;20034;-53
2023/03/06 11:28:01;;;;;;;36.97;24.40;;;5.40;99.90;;;;;;5022668;28;20049;-48
2023/03/06 11:31:09;;;;;;;34.17;23.08;;;5.40;99.90;;;;;;5030239;28;20151;-52
2023/03/06 11:34:10;;;;;;;34.15;22.10;;;5.10;99.90;;;;;;5030353;28;20073;-52
2023/03/06 11:37:05;;;;;;;32.38;21.08;;;4.90;99.90;;;;;;5030342;28;20350;-50
2023/03/06 11:40:03;;;;;;;31.53;20.43;;;4.90;99.90;;;;;;5031043;28;20030;-51
2023/03/06 11:43:25;;;;;;;30.65;19.75;;;4.90;99.90;;;;;;5031024;28;20057;-54
2023/03/06 11:46:21;;;;;;;31.23;20.05;;;4.90;99.90;;;;;;4997229;28;20033;-52
2023/03/06 11:49:26;;;;;;;35.38;21.83;;;5.00;99.90;;;;;;5033590;28;20021;-50
2023/03/06 11:52:20;;;;;;;35.38;22.00;;;4.80;99.90;;;;;;5034063;28;20029;-52
2023/03/06 11:55:11;;;;;;;37.17;22.42;;;4.70;99.90;;;;;;5033382;28;20057;-50
2023/03/06 11:58:21;;;;;;;23.65;15.05;;;4.60;99.90;;;;;;5032882;28;20115;-53
2023/03/06 12:01:40;;;;;;;22.52;14.38;;;4.40;99.90;;;;;;5033231;28;20021;-48
2023/03/06 12:04:47;;;;;;;17.27;11.27;;;4.30;99.90;;;;;;5032598;28;20446;-52
2023/03/06 12:07:38;;;;;;;18.90;12.88;;;4.40;99.90;;;;;;5031424;28;20031;-50
2023/03/06 12:11:19;;;;;;;17.88;12.30;;;4.70;99.90;;;;;;5028062;28;20064;-53
2023/03/06 12:14:29;;;;;;;22.50;12.52;;;5.10;99.90;;;;;;4989023;28;20041;-57
2023/03/06 12:17:30;;;;;;;19.15;12.50;;;5.40;99.90;;;;;;5030095;28;20025;-52
2023/03/06 12:20:22;;;;;;;22.95;14.15;;;5.40;99.90;;;;;;5012758;28;20034;-50
2023/03/06 12:23:40;;;;;;;20.23;13.80;;;5.30;99.90;;;;;;5016550;28;20100;-52
2023/03/06 12:26:48;;;;;;;19.35;13.38;;;5.40;99.90;;;;;;5010187;28;20418;-51
2023/03/06 12:29:40;;;;;;;20.88;13.40;;;5.30;99.90;;;;;;5029241;28;20028;-55
2023/03/06 12:32:58;;;;;;;21.95;14.35;;;5.10;99.90;;;;;;5031675;28;20040;-54
2023/03/06 12:36:15;;;;;;;19.45;13.23;;;5.10;99.90;;;;;;5033057;28;20505;-56
2023/03/06 12:39:09;;;;;;;21.88;13.80;;;5.30;99.90;;;;;;5032102;28;20033;-58
2023/03/06 12:41:57;;;;;;;20.55;14.32;;;5.30;99.90;;;;;;5031073;28;20042;-55
2023/03/06 12:44:58;;;;;;;20.98;13.82;;;5.20;99.90;;;;;;5033831;28;20022;-56
2023/03/06 12:47:46;;;;;;;23.88;15.05;;;5.20;99.90;;;;;;5031546;28;20601;-52
2023/03/06 12:50:37;;;;;;;24.67;16.52;;;5.20;99.90;;;;;;5033455;28;20037;-54
2023/03/06 12:53:28;;;;;;;26.92;17.83;;;5.10;99.90;;;;;;5032620;28;20040;-55
2023/03/06 12:56:16;;;;;;;24.92;17.50;;;5.10;99.90;;;;;;5038764;28;20029;-58
2023/03/06 12:59:03;;;;;;;21.40;14.88;;;5.10;99.90;;;;;;5031726;28;20025;-58
2023/03/06 13:02:16;;;;;;;19.95;13.30;;;5.10;99.90;;;;;;5032754;28;20807;-56
2023/03/06 13:05:44;;;;;;;23.08;14.80;;;5.10;99.90;;;;;;5032839;28;20025;-53
2023/03/06 13:09:15;;;;;;;22.85;14.75;;;4.90;99.90;;;;;;5011604;28;20025;-55
2023/03/06 13:12:01;;;;;;;24.77;16.48;;;5.10;99.90;;;;;;5026140;28;20474;-54
2023/03/06 13:14:58;;;;;;;23.02;15.70;;;5.20;99.90;;;;;;5032465;28;20048;-58
2023/03/06 13:17:44;;;;;;;20.85;14.05;;;5.60;99.90;;;;;;5031162;28;20053;-55
2023/03/06 13:20:41;;;;;;;20.77;14.52;;;5.80;99.90;;;;;;5032225;28;20025;-53
2023/03/06 13:23:42;;;;;;;23.40;14.77;;;5.50;99.90;;;;;;5031043;28;20033;-47
2023/03/06 13:26:28;;;;;;;21.30;14.32;;;5.60;99.90;;;;;;5030498;28;20025;-50
2023/03/06 13:29:47;;;;;;;22.40;15.40;;;5.70;99.90;;;;;;5031865;28;20482;-50
2023/03/06 13:32:34;;;;;;;20.58;14.13;;;5.80;99.90;;;;;;5012098;28;20034;-56
2023/03/06 13:35:30;;;;;;;19.55;13.90;;;5.60;99.90;;;;;;5023194;28;20030;-50
2023/03/06 13:38:48;;;;;;;18.90;13.43;;;5.60;99.90;;;;;;5030655;28;20056;-52
2023/03/06 13:41:43;;;;;;;24.80;15.32;;;5.70;99.90;;;;;;5017174;28;20048;-50
2023/03/06 13:44:29;;;;;;;24.30;14.25;;;5.70;99.90;;;;;;5022590;28;20021;-51
2023/03/06 13:47:37;;;;;;;22.60;13.98;;;5.60;99.90;;;;;;5025842;28;20429;-57
2023/03/06 13:50:34;;;;;;;21.50;13.70;;;5.70;99.90;;;;;;5031951;28;20053;-52
2023/03/06 13:53:52;;;;;;;19.85;13.45;;;5.80;99.90;;;;;;5029983;28;20037;-49
2023/03/06 13:57:10;;;;;;;20.50;14.50;;;5.70;99.90;;;;;;5030107;28;20041;-53
2023/03/06 14:00:07;;;;;;;21.02;13.88;;;6.10;99.90;;;;;;5031818;28;20036;-50
2023/03/06 14:03:11;;;;;;;19.38;13.15;;;5.90;99.90;;;;;;5031059;28;20029;-52
2023/03/06 14:05:57;;;;;;;23.10;15.30;;;6.00;99.90;;;;;;5031491;28;20029;-51
2023/03/06 14:08:43;;;;;;;21.48;14.73;;;6.10;99.90;;;;;;5031419;28;20033;-53
2023/03/06 14:11:31;;;;;;;20.88;14.07;;;6.00;99.90;;;;;;5003495;28;20498;-48
2023/03/06 14:14:19;;;;;;;18.55;14.25;;;6.10;99.90;;;;;;5031421;28;20033;-48
2023/03/06 14:17:05;;;;;;;20.35;14.23;;;6.00;99.90;;;;;;5030562;28;20037;-46
2023/03/06 14:19:51;;;;;;;21.88;13.65;;;6.00;99.90;;;;;;5031444;28;20037;-49
2023/03/06 14:22:37;;;;;;;17.80;12.88;;;5.90;99.90;;;;;;5030169;28;20044;-56
2023/03/06 14:25:29;;;;;;;18.98;13.10;;;5.80;99.90;;;;;;5015225;28;20105;-55
2023/03/06 14:28:24;;;;;;;19.25;12.68;;;5.80;99.90;;;;;;5028029;28;20079;-47
2023/03/06 14:31:17;;;;;;;18.35;12.55;;;5.80;99.90;;;;;;5030328;28;20401;-49
2023/03/06 14:34:06;;;;;;;16.75;12.30;;;5.90;99.90;;;;;;5031102;28;20445;-52
2023/03/06 14:37:00;;;;;;;14.60;11.15;;;6.10;99.90;;;;;;5031307;28;20397;-52